createdAt,value
2022-10-23T00:00:09.032Z,10.39
2022-10-23T00:01:08.947Z,10.37
2022-10-23T00:02:09.027Z,10.34
2022-10-23T00:03:08.932Z,10.33
2022-10-23T00:04:08.946Z,10.32
2022-10-23T00:05:08.903Z,10.32
2022-10-23T00:06:08.911Z,10.26
2022-10-23T00:07:08.917Z,10.26
2022-10-23T00:08:08.878Z,10.25
2022-10-23T00:09:08.899Z,10.24
2022-10-23T00:10:08.865Z,10.22
2022-10-23T00:11:08.815Z,10.19
2022-10-23T00:12:08.820Z,10.17
2022-10-23T00:13:08.793Z,10.14
2022-10-23T00:14:08.780Z,10.12
2022-10-23T00:15:08.824Z,10.09
2022-10-23T00:16:08.783Z,10.07
2022-10-23T00:17:08.778Z,10.07
2022-10-23T00:18:08.745Z,10.06
2022-10-23T00:19:09.296Z,10.03
2022-10-23T00:20:08.716Z,10.03
2022-10-23T00:21:08.675Z,10.01
2022-10-23T00:22:08.736Z,9.99
2022-10-23T00:23:08.713Z,9.99
2022-10-23T00:25:07.619Z,9.99
2022-10-23T00:26:08.649Z,10.00
2022-10-23T00:27:08.650Z,9.99
2022-10-23T00:28:08.647Z,9.97
2022-10-23T00:29:08.562Z,9.96
2022-10-23T00:30:08.573Z,9.96
2022-10-23T00:31:08.573Z,9.94
2022-10-23T00:32:08.579Z,9.99
2022-10-23T00:33:08.517Z,9.94
2022-10-23T00:34:08.833Z,9.93
2022-10-23T00:35:08.520Z,9.97
2022-10-23T00:36:08.507Z,9.91
2022-10-23T00:37:08.464Z,9.91
2022-10-23T00:38:08.455Z,9.91
2022-10-23T00:39:08.493Z,9.86
2022-10-23T00:40:08.428Z,9.85
2022-10-23T00:41:08.458Z,9.83
2022-10-23T00:42:08.410Z,9.82
2022-10-23T00:43:08.376Z,9.82
2022-10-23T00:44:08.371Z,9.82
2022-10-23T00:45:08.357Z,9.82
2022-10-23T00:46:08.365Z,9.79
2022-10-23T00:47:08.368Z,9.82
2022-10-23T00:48:08.360Z,9.79
2022-10-23T00:49:08.356Z,9.82
2022-10-23T00:50:08.307Z,9.81
2022-10-23T00:51:08.292Z,9.82
2022-10-23T00:52:08.273Z,9.79
2022-10-23T00:53:08.254Z,9.79
2022-10-23T00:54:23.430Z,9.78
2022-10-23T00:55:08.252Z,9.75
2022-10-23T00:56:08.247Z,9.76
2022-10-23T00:57:08.202Z,9.71
2022-10-23T00:58:08.205Z,9.68
2022-10-23T00:59:08.172Z,9.66
2022-10-23T01:00:08.188Z,9.61
2022-10-23T01:01:08.235Z,9.61
2022-10-23T01:02:08.240Z,9.60
2022-10-23T01:03:08.130Z,9.58
2022-10-23T01:04:08.138Z,9.57
2022-10-23T01:05:08.096Z,9.52
2022-10-23T01:06:08.124Z,9.52
2022-10-23T01:07:08.073Z,9.56
2022-10-23T01:08:08.048Z,9.57
2022-10-23T01:09:08.097Z,9.50
2022-10-23T01:10:08.061Z,9.52
2022-10-23T01:11:08.009Z,9.48
2022-10-23T01:12:07.997Z,9.49
2022-10-23T01:13:07.968Z,9.45
2022-10-23T01:14:07.961Z,9.45
2022-10-23T01:15:07.937Z,9.45
2022-10-23T01:16:07.940Z,9.43
2022-10-23T01:17:07.935Z,9.40
2022-10-23T01:18:07.958Z,9.42
2022-10-23T01:19:07.898Z,9.40
2022-10-23T01:20:07.869Z,9.42
2022-10-23T01:21:07.894Z,9.43
2022-10-23T01:22:07.863Z,9.43
2022-10-23T01:23:07.879Z,9.43
2022-10-23T01:24:07.834Z,9.46
2022-10-23T01:25:07.861Z,9.46
2022-10-23T01:26:07.806Z,9.49
2022-10-23T01:27:07.805Z,9.49
2022-10-23T01:28:07.800Z,9.48
2022-10-23T01:29:07.760Z,9.48
2022-10-23T01:30:07.778Z,9.45
2022-10-23T01:31:07.728Z,9.42
2022-10-23T01:32:07.785Z,9.38
2022-10-23T01:33:07.736Z,9.40
2022-10-23T01:34:07.693Z,9.35
2022-10-23T01:35:07.700Z,9.34
2022-10-23T01:36:07.687Z,9.32
2022-10-23T01:37:07.689Z,9.31
2022-10-23T01:38:07.644Z,9.28
2022-10-23T01:39:07.676Z,9.27
2022-10-23T01:40:07.619Z,9.24
2022-10-23T01:41:07.619Z,9.23
2022-10-23T01:42:07.601Z,9.23
2022-10-23T01:43:07.617Z,9.23
2022-10-23T01:44:07.582Z,9.23
2022-10-23T01:45:07.535Z,9.24
2022-10-23T01:46:07.532Z,9.24
2022-10-23T01:47:07.519Z,9.24
2022-10-23T01:48:07.500Z,9.23
2022-10-23T01:49:07.481Z,9.21
2022-10-23T01:50:07.515Z,9.18
2022-10-23T01:51:07.451Z,9.20
2022-10-23T01:52:07.523Z,9.16
2022-10-23T01:53:07.426Z,9.15
2022-10-23T01:54:07.466Z,9.13
2022-10-23T01:55:07.428Z,9.12
2022-10-23T01:56:07.416Z,9.12
2022-10-23T01:57:07.368Z,9.10
2022-10-23T01:58:07.414Z,9.12
2022-10-23T01:59:07.360Z,9.06
2022-10-23T02:00:07.346Z,9.04
2022-10-23T02:01:07.373Z,9.04
2022-10-23T02:02:07.442Z,9.02
2022-10-23T02:03:07.305Z,9.01
2022-10-23T02:04:07.281Z,8.99
2022-10-23T02:05:07.293Z,8.96
2022-10-23T02:06:07.287Z,8.94
2022-10-23T02:07:07.287Z,8.94
2022-10-23T02:08:07.257Z,8.93
2022-10-23T02:09:07.213Z,8.93
2022-10-23T02:10:07.255Z,8.94
2022-10-23T02:11:07.243Z,8.93
2022-10-23T02:12:07.171Z,8.91
2022-10-23T02:13:07.171Z,8.94
2022-10-23T02:14:07.156Z,8.96
2022-10-23T02:15:07.138Z,8.94
2022-10-23T02:16:07.171Z,8.94
2022-10-23T02:17:07.098Z,8.94
2022-10-23T02:18:07.105Z,8.94
2022-10-23T02:19:07.090Z,8.96
2022-10-23T02:20:07.102Z,8.97
2022-10-23T02:21:07.096Z,8.96
2022-10-23T02:22:07.061Z,9.01
2022-10-23T02:23:07.075Z,9.01
2022-10-23T02:24:07.016Z,9.02
2022-10-23T02:25:07.036Z,9.01
2022-10-23T02:26:06.988Z,9.01
2022-10-23T02:27:07.002Z,9.02
2022-10-23T02:28:06.961Z,9.02
2022-10-23T02:29:06.992Z,8.99
2022-10-23T02:30:06.936Z,8.97
2022-10-23T02:31:06.908Z,8.97
2022-10-23T02:32:06.910Z,8.97
2022-10-23T02:33:06.885Z,8.93
2022-10-23T02:34:06.906Z,8.94
2022-10-23T02:35:06.882Z,8.91
2022-10-23T02:36:06.856Z,8.90
2022-10-23T02:37:06.822Z,8.87
2022-10-23T02:38:06.819Z,8.87
2022-10-23T02:39:06.808Z,8.86
2022-10-23T02:40:06.832Z,8.86
2022-10-23T02:41:06.794Z,8.88
2022-10-23T02:42:06.761Z,8.88
2022-10-23T02:43:06.749Z,8.90
2022-10-23T02:44:06.736Z,8.90
2022-10-23T02:45:06.752Z,8.90
2022-10-23T02:46:06.714Z,8.91
2022-10-23T02:47:06.727Z,8.88
2022-10-23T02:48:06.684Z,8.90
2022-10-23T02:49:06.701Z,8.91
2022-10-23T02:50:06.654Z,8.88
2022-10-23T02:51:06.678Z,8.88
2022-10-23T02:52:06.684Z,8.87
2022-10-23T02:53:06.604Z,8.88
2022-10-23T02:54:06.687Z,8.87
2022-10-23T02:55:06.636Z,8.87
2022-10-23T02:56:06.595Z,8.87
2022-10-23T02:57:06.600Z,8.86
2022-10-23T02:58:06.551Z,8.86
2022-10-23T02:59:06.604Z,8.86
2022-10-23T03:00:06.560Z,8.87
2022-10-23T03:01:06.565Z,8.87
2022-10-23T03:02:06.707Z,8.87
2022-10-23T03:03:06.476Z,8.88
2022-10-23T03:04:06.492Z,8.91
2022-10-23T03:05:06.450Z,8.93
2022-10-23T03:06:06.450Z,8.97
2022-10-23T03:07:06.412Z,8.99
2022-10-23T03:08:06.401Z,8.96
2022-10-23T03:09:06.461Z,8.99
2022-10-23T03:10:06.407Z,8.99
2022-10-23T03:11:06.369Z,9.05
2022-10-23T03:12:06.433Z,9.04
2022-10-23T03:13:06.358Z,9.02
2022-10-23T03:14:06.312Z,8.99
2022-10-23T03:15:06.395Z,9.02
2022-10-23T03:16:06.352Z,9.02
2022-10-23T03:17:06.286Z,8.99
2022-10-23T03:18:06.292Z,8.99
2022-10-23T03:19:06.310Z,8.94
2022-10-23T03:20:06.290Z,8.99
2022-10-23T03:21:06.276Z,8.96
2022-10-23T03:22:06.218Z,9.01
2022-10-23T03:23:06.204Z,8.97
2022-10-23T03:24:06.214Z,8.96
2022-10-23T03:25:06.187Z,8.97
2022-10-23T03:26:06.205Z,8.97
2022-10-23T03:27:06.158Z,8.99
2022-10-23T03:28:06.191Z,8.97
2022-10-23T03:29:06.151Z,8.96
2022-10-23T03:30:06.156Z,8.97
2022-10-23T03:31:06.127Z,8.97
2022-10-23T04:05:10.471Z,8.93
2022-10-23T04:06:09.621Z,8.90
2022-10-23T04:07:09.620Z,8.90
2022-10-23T04:08:09.655Z,8.88
2022-10-23T04:09:09.588Z,8.90
2022-10-23T04:10:09.626Z,8.88
2022-10-23T04:11:09.585Z,8.90
2022-10-23T04:12:09.584Z,8.90
2022-10-23T04:13:09.536Z,8.91
2022-10-23T04:14:09.561Z,8.91
2022-10-23T04:15:09.609Z,8.91
2022-10-23T04:16:09.556Z,8.90
2022-10-23T04:17:09.485Z,8.91
2022-10-23T04:18:09.470Z,8.93
2022-10-23T04:19:09.451Z,8.94
2022-10-23T04:20:09.494Z,8.93
2022-10-23T04:21:09.504Z,8.91
2022-10-23T04:22:09.453Z,8.91
2022-10-23T04:23:09.392Z,8.90
2022-10-23T04:24:09.390Z,8.90
2022-10-23T04:25:09.400Z,8.91
2022-10-23T04:26:09.373Z,8.90
2022-10-23T04:27:09.343Z,8.90
2022-10-23T04:28:09.430Z,8.87
2022-10-23T04:29:09.339Z,8.88
2022-10-23T04:30:09.329Z,8.88
2022-10-23T04:31:09.290Z,8.88
2022-10-23T04:32:09.284Z,8.90
2022-10-23T04:33:09.264Z,8.90
2022-10-23T04:34:09.281Z,8.90
2022-10-23T04:35:09.264Z,8.90
2022-10-23T04:36:09.300Z,8.91
2022-10-23T04:37:09.204Z,8.94
2022-10-23T04:38:09.205Z,8.93
2022-10-23T04:39:09.196Z,8.91
2022-10-23T04:40:09.170Z,8.91
2022-10-23T04:41:09.168Z,8.96
2022-10-23T04:42:09.138Z,8.96
2022-10-23T04:43:09.123Z,8.97
2022-10-23T04:44:09.182Z,8.96
2022-10-23T04:45:09.156Z,8.96
2022-10-23T04:46:09.164Z,8.97
2022-10-23T04:47:09.067Z,8.97
2022-10-23T04:48:09.094Z,8.99
2022-10-23T04:49:09.100Z,9.01
2022-10-23T04:50:09.109Z,9.05
2022-10-23T04:51:09.090Z,9.02
2022-10-23T04:52:09.003Z,9.05
2022-10-23T04:53:09.003Z,9.05
2022-10-23T04:54:08.984Z,9.05
2022-10-23T04:55:08.954Z,9.06
2022-10-23T04:56:08.959Z,9.06
2022-10-23T04:57:08.970Z,9.09
2022-10-23T04:58:08.985Z,9.10
2022-10-23T04:59:08.929Z,9.09
2022-10-23T05:00:08.899Z,9.06
2022-10-23T05:01:08.991Z,9.06
2022-10-23T05:02:08.893Z,9.10
2022-10-23T05:03:08.884Z,9.10
2022-10-23T05:04:08.852Z,9.10
2022-10-23T05:05:08.820Z,9.09
2022-10-23T05:06:08.860Z,9.06
2022-10-23T05:07:08.818Z,9.06
2022-10-23T05:08:08.803Z,9.09
2022-10-23T05:09:08.763Z,9.09
2022-10-23T05:10:08.763Z,9.06
2022-10-23T05:11:08.757Z,9.06
2022-10-23T05:12:08.773Z,9.05
2022-10-23T05:13:08.712Z,9.02
2022-10-23T05:14:08.742Z,9.05
2022-10-23T05:15:08.681Z,9.05
2022-10-23T05:16:08.688Z,9.06
2022-10-23T05:17:08.657Z,9.06
2022-10-23T05:18:08.700Z,9.06
2022-10-23T05:19:08.651Z,9.05
2022-10-23T05:20:08.631Z,9.09
2022-10-23T05:21:08.649Z,9.10
2022-10-23T05:22:08.596Z,9.10
2022-10-23T05:23:08.593Z,9.13
2022-10-23T05:24:08.606Z,9.15
2022-10-23T05:25:08.596Z,9.13
2022-10-23T05:26:08.557Z,9.13
2022-10-23T05:27:08.545Z,9.16
2022-10-23T05:28:08.517Z,9.18
2022-10-23T05:29:08.544Z,9.18
2022-10-23T05:30:08.484Z,9.23
2022-10-23T05:31:08.520Z,9.21
2022-10-23T05:32:08.542Z,9.24
2022-10-23T05:33:08.499Z,9.23
2022-10-23T05:34:11.213Z,9.25
2022-10-23T05:35:08.505Z,9.25
2022-10-23T05:36:08.439Z,9.25
2022-10-23T05:37:08.414Z,9.25
2022-10-23T05:38:08.430Z,9.28
2022-10-23T05:39:08.372Z,9.27
2022-10-23T05:40:08.431Z,9.27
2022-10-23T05:41:08.402Z,9.27
2022-10-23T05:42:08.358Z,9.25
2022-10-23T05:43:08.325Z,9.28
2022-10-23T05:44:08.294Z,9.30
2022-10-23T05:45:08.326Z,9.25
2022-10-23T05:46:08.276Z,9.27
2022-10-23T05:47:08.283Z,9.25
2022-10-23T05:48:11.404Z,9.24
2022-10-23T05:49:08.247Z,9.27
2022-10-23T05:50:08.271Z,9.27
2022-10-23T05:51:08.225Z,9.25
2022-10-23T05:52:08.283Z,9.27
2022-10-23T05:53:08.218Z,9.28
2022-10-23T05:54:08.231Z,9.30
2022-10-23T05:55:08.159Z,9.31
2022-10-23T05:56:08.174Z,9.32
2022-10-23T05:57:08.181Z,9.32
2022-10-23T05:58:08.153Z,9.35
2022-10-23T05:59:08.170Z,9.40
2022-10-23T06:00:08.121Z,9.42
2022-10-23T06:01:08.151Z,9.42
2022-10-23T06:02:08.188Z,9.40
2022-10-23T06:03:08.091Z,9.39
2022-10-23T06:04:08.048Z,9.39
2022-10-23T06:05:08.019Z,9.42
2022-10-23T06:06:08.050Z,9.45
2022-10-23T06:07:07.993Z,9.45
2022-10-23T06:08:07.989Z,9.48
2022-10-23T06:09:08.019Z,9.46
2022-10-23T06:10:08.004Z,9.46
2022-10-23T06:11:08.006Z,9.43
2022-10-23T06:12:07.954Z,9.43
2022-10-23T06:13:07.919Z,9.45
2022-10-23T06:14:07.929Z,9.43
2022-10-23T06:15:07.886Z,9.43
2022-10-23T06:16:09.723Z,9.40
2022-10-23T06:17:07.907Z,9.39
2022-10-23T06:18:07.886Z,9.38
2022-10-23T06:19:07.870Z,9.35
2022-10-23T06:20:07.857Z,9.34
2022-10-23T06:21:07.803Z,9.35
2022-10-23T06:22:07.825Z,9.39
2022-10-23T06:23:07.795Z,9.38
2022-10-23T06:24:07.797Z,9.39
2022-10-23T06:25:07.807Z,9.39
2022-10-23T06:26:07.727Z,9.40
2022-10-23T06:27:07.737Z,9.45
2022-10-23T06:28:07.755Z,9.45
2022-10-23T06:29:07.703Z,9.48
2022-10-23T06:30:07.781Z,9.52
2022-10-23T06:31:07.708Z,9.57
2022-10-23T06:32:07.682Z,9.58
2022-10-23T06:33:07.696Z,9.60
2022-10-23T06:34:07.621Z,9.58
2022-10-23T06:35:07.620Z,9.58
2022-10-23T06:36:07.603Z,9.58
2022-10-23T06:37:07.655Z,9.63
2022-10-23T06:38:07.569Z,9.64
2022-10-23T06:39:07.600Z,9.66
2022-10-23T06:40:07.588Z,9.71
2022-10-23T06:41:07.613Z,9.76
2022-10-23T06:42:07.573Z,9.79
2022-10-23T06:43:07.547Z,9.82
2022-10-23T06:44:06.491Z,9.85
2022-10-23T06:45:07.563Z,9.88
2022-10-23T06:46:07.496Z,9.89
2022-10-23T06:47:07.504Z,9.93
2022-10-23T06:48:07.547Z,9.94
2022-10-23T06:49:07.469Z,9.97
2022-10-23T06:50:10.619Z,10.00
2022-10-23T06:51:07.410Z,10.04
2022-10-23T06:52:14.286Z,10.12
2022-10-23T06:53:07.378Z,10.18
2022-10-23T06:54:07.425Z,10.21
2022-10-23T06:55:07.347Z,10.26
2022-10-23T06:56:07.370Z,10.36
2022-10-23T06:57:07.341Z,10.40
2022-10-23T06:58:07.296Z,10.51
2022-10-23T06:59:07.291Z,10.55
2022-10-23T07:00:07.271Z,10.59
2022-10-23T07:01:07.438Z,10.63
2022-10-23T07:02:07.245Z,10.65
2022-10-23T07:03:07.268Z,10.70
2022-10-23T07:04:06.223Z,10.74
2022-10-23T07:05:09.890Z,10.77
2022-10-23T07:06:07.213Z,10.77
2022-10-23T07:07:07.202Z,10.78
2022-10-23T07:08:07.171Z,10.84
2022-10-23T07:09:07.157Z,10.86
2022-10-23T07:10:07.234Z,10.92
2022-10-23T07:11:07.133Z,10.94
2022-10-23T07:12:07.129Z,10.92
2022-10-23T07:13:07.113Z,10.95
2022-10-23T07:14:07.101Z,11.02
2022-10-23T07:15:07.078Z,11.06
2022-10-23T07:16:07.063Z,11.10
2022-10-23T07:17:07.057Z,11.13
2022-10-23T07:18:07.082Z,11.13
2022-10-23T07:19:07.065Z,11.16
2022-10-23T07:20:07.041Z,11.16
2022-10-23T07:21:07.006Z,11.19
2022-10-23T07:22:08.065Z,11.21
2022-10-23T07:23:06.981Z,11.25
2022-10-23T07:24:06.961Z,11.29
2022-10-23T07:25:05.946Z,11.34
2022-10-23T07:26:06.987Z,11.38
2022-10-23T07:27:06.965Z,11.43
2022-10-23T07:28:06.900Z,11.47
2022-10-23T07:29:06.901Z,11.49
2022-10-23T07:30:06.881Z,11.52
2022-10-23T07:31:06.878Z,11.52
2022-10-23T07:32:06.855Z,11.56
2022-10-23T07:33:06.841Z,11.61
2022-10-23T07:34:06.870Z,11.65
2022-10-23T07:35:06.930Z,11.67
2022-10-23T07:36:06.860Z,11.68
2022-10-23T07:37:06.818Z,11.71
2022-10-23T07:38:06.810Z,11.74
2022-10-23T07:39:06.906Z,11.77
2022-10-23T07:40:06.741Z,11.82
2022-10-23T07:41:08.961Z,11.86
2022-10-23T07:42:06.758Z,11.89
2022-10-23T07:43:06.717Z,11.90
2022-10-23T07:44:06.712Z,11.94
2022-10-23T07:45:06.730Z,11.97
2022-10-23T07:46:06.657Z,12.01
2022-10-23T07:47:06.687Z,12.02
2022-10-23T07:48:05.669Z,12.06
2022-10-23T07:49:06.680Z,12.06
2022-10-23T07:50:06.620Z,12.09
2022-10-23T07:51:06.599Z,12.12
2022-10-23T07:52:06.580Z,12.15
2022-10-23T07:53:06.579Z,12.19
2022-10-23T07:54:06.561Z,12.20
2022-10-23T07:55:06.596Z,12.21
2022-10-23T07:56:06.525Z,12.24
2022-10-23T07:57:06.550Z,12.23
2022-10-23T07:58:06.500Z,12.26
2022-10-23T07:59:06.539Z,12.29
2022-10-23T08:00:06.512Z,12.29
2022-10-23T08:01:06.517Z,12.30
2022-10-23T08:02:06.543Z,12.31
2022-10-23T08:03:06.566Z,12.34
2022-10-23T08:04:06.496Z,12.41
2022-10-23T08:05:06.472Z,12.39
2022-10-23T08:06:06.439Z,12.42
2022-10-23T08:07:06.384Z,12.46
2022-10-23T08:08:06.385Z,12.46
2022-10-23T08:09:07.011Z,12.48
2022-10-23T08:10:06.379Z,12.52
2022-10-23T08:11:06.336Z,12.57
2022-10-23T08:12:05.307Z,12.57
2022-10-23T08:13:06.310Z,12.63
2022-10-23T08:14:06.285Z,12.63
2022-10-23T08:15:06.282Z,12.63
2022-10-23T08:16:06.258Z,12.70
2022-10-23T08:17:06.247Z,12.74
2022-10-23T08:18:06.231Z,12.79
2022-10-23T08:19:06.227Z,12.84
2022-10-23T08:20:06.223Z,12.89
2022-10-23T08:21:06.191Z,12.88
2022-10-23T08:22:06.201Z,12.89
2022-10-23T08:23:06.167Z,12.93
2022-10-23T08:24:06.157Z,12.93
2022-10-23T08:25:06.177Z,12.93
2022-10-23T08:26:06.141Z,12.96
2022-10-23T08:27:06.109Z,12.99
2022-10-23T08:28:06.419Z,13.03
2022-10-23T08:29:06.095Z,13.03
2022-10-23T08:30:06.077Z,13.06
2022-10-23T08:31:06.065Z,13.12
2022-10-23T08:32:06.039Z,13.11
2022-10-23T08:33:06.045Z,13.15
2022-10-23T08:34:06.025Z,13.18
2022-10-23T08:35:06.015Z,13.21
2022-10-23T08:36:09.883Z,13.25
2022-10-23T08:37:05.976Z,13.22
2022-10-23T12:36:23.980Z,18.54
2022-10-23T12:37:23.261Z,18.52
2022-10-23T12:38:23.261Z,18.54
2022-10-23T12:39:23.242Z,18.55
2022-10-23T12:40:23.412Z,18.59
2022-10-23T12:42:38.686Z,18.72
2022-10-23T12:43:39.708Z,18.74
2022-10-23T12:44:39.692Z,18.74
2022-10-23T12:45:39.694Z,18.76
2022-10-23T12:46:39.619Z,18.82
2022-10-23T12:47:39.641Z,18.87
2022-10-23T12:48:39.644Z,18.92
2022-10-23T12:56:58.358Z,19.47
2022-10-23T12:57:58.405Z,19.55
2022-10-23T12:59:25.846Z,19.63
2022-10-23T12:59:59.311Z,19.68
2022-10-23T13:05:56.206Z,-39.78
2022-10-23T13:06:51.989Z,-39.78
